Time;durP1;ratioP1;P1;durP2;ratioP2;P2;SDS_P1;SDS_P2;PMS_P1;PMS_P2;Temp;Humidity;BMP_temperature;BMP_pressure;BME280_temperature;BME280_humidity;BME280_pressure;Samples;Min_cycle;Max_cycle;Signal;HPM_P1;HPM_P2
2021/07/08 00:00:15;;;;;;;4.85;3.00;;;;;;;23.36;55.49;98827.72;4974584;28;20050;-92
2021/07/08 00:02:41;;;;;;;6.47;3.42;;;;;;;23.28;55.95;98822.03;4976321;28;20058;-93
2021/07/08 00:05:10;;;;;;;5.60;3.63;;;;;;;23.27;55.70;98822.16;4976700;28;20034;-93
2021/07/08 00:07:36;;;;;;;;;;;;;;;23.33;55.40;98821.66;4977051;28;20046;-91
2021/07/08 00:10:04;;;;;;;5.68;3.20;;;;;;;23.26;55.08;98813.16;4977126;28;19922;-92
2021/07/08 00:12:32;;;;;;;7.05;3.40;;;;;;;23.23;55.28;98816.13;4976636;28;20049;-92
2021/07/08 00:14:58;;;;;;;8.55;3.47;;;;;;;23.21;55.54;98822.66;4976172;28;20055;-93
2021/07/08 00:17:23;;;;;;;9.95;3.50;;;;;;;22.96;55.88;98798.25;4976602;28;20548;-93
2021/07/08 00:19:49;;;;;;;5.78;3.47;;;;;;;22.95;56.47;98818.22;4976263;28;20062;-93
2021/07/08 00:22:15;;;;;;;5.30;3.10;;;;;;;22.82;56.92;98800.31;4976807;28;20098;-93
2021/07/08 00:24:41;;;;;;;9.43;4.20;;;;;;;22.77;56.80;98804.25;4976029;28;20046;-93
2021/07/08 00:27:07;;;;;;;8.18;3.58;;;;;;;22.80;56.81;98807.72;4976992;28;20465;-93
2021/07/08 00:29:35;;;;;;;7.35;3.17;;;;;;;22.83;56.97;98799.31;4976331;28;20489;-92
2021/07/08 00:32:01;;;;;;;6.50;3.75;;;;;;;22.71;57.40;98796.56;4976137;28;20043;-93
2021/07/08 00:34:27;;;;;;;5.93;3.60;;;;;;;22.65;57.25;98782.63;4976489;28;20493;-92
2021/07/08 00:36:53;;;;;;;7.60;3.50;;;;;;;22.73;57.50;98777.50;4976398;28;20043;-92
2021/07/08 00:39:18;;;;;;;8.32;3.90;;;;;;;22.72;57.51;98773.03;4976816;28;20054;-92
2021/07/08 00:41:44;;;;;;;15.20;4.07;;;;;;;22.67;57.67;98775.25;4976924;28;20043;-94
2021/07/08 00:44:10;;;;;;;6.00;4.00;;;;;;;22.65;57.92;98775.34;4976234;28;20054;-90
2021/07/08 00:46:38;;;;;;;7.22;3.42;;;;;;;22.72;58.32;98783.88;4975064;28;20038;-92
2021/07/08 00:49:04;;;;;;;8.07;4.07;;;;;;;22.71;58.19;98795.72;4975680;28;20153;-92
2021/07/08 00:51:30;;;;;;;8.32;4.05;;;;;;;22.69;57.98;98790.41;4976098;28;20503;-92
2021/07/08 00:53:55;;;;;;;7.35;3.72;;;;;;;22.65;57.83;98786.19;4975879;28;20050;-92
2021/07/08 00:56:22;;;;;;;6.88;3.72;;;;;;;22.55;58.40;98794.19;4976026;28;20046;-91
2021/07/08 00:59:06;;;;;;;5.50;3.30;;;;;;;22.48;58.99;98798.31;4974464;28;20043;-92
2021/07/08 01:01:32;;;;;;;6.10;3.55;;;;;;;22.46;58.79;98807.56;4971197;28;20051;-92
2021/07/08 01:04:02;;;;;;;6.70;3.42;;;;;;;22.51;58.81;98805.34;4975867;28;20059;-91
2021/07/08 01:06:29;;;;;;;7.63;3.42;;;;;;;22.47;58.62;98796.59;4975878;28;20053;-92
2021/07/08 01:08:55;;;;;;;5.97;3.80;;;;;;;22.67;58.50;98814.06;4977856;28;20043;-92
2021/07/08 01:11:22;;;;;;;4.50;3.60;;;;;;;22.67;57.90;98784.25;4974322;28;20087;-92
2021/07/08 01:13:48;;;;;;;8.60;3.95;;;;;;;22.74;58.14;98782.78;4977754;28;20054;-92
2021/07/08 01:16:17;;;;;;;8.38;3.50;;;;;;;22.65;58.72;98780.78;4979311;28;20496;-90
2021/07/08 01:18:42;;;;;;;8.57;3.88;;;;;;;22.62;59.09;98770.19;4978338;28;20039;-92
2021/07/08 01:21:21;;;;;;;6.35;3.50;;;;;;;22.61;58.61;98773.84;4978592;28;20494;-92
2021/07/08 01:23:47;;;;;;;5.72;3.58;;;;;;;22.64;58.75;98767.34;4978761;28;20125;-91
2021/07/08 01:26:13;;;;;;;6.82;3.88;;;;;;;22.54;59.58;98764.47;4978185;28;20527;-91
2021/07/08 01:28:39;;;;;;;10.60;3.97;;;;;;;22.61;59.80;98798.25;4978939;28;20043;-92
2021/07/08 01:31:07;;;;;;;9.25;3.90;;;;;;;22.52;60.05;98783.56;4978537;28;20122;-92
2021/07/08 01:33:34;;;;;;;5.75;3.30;;;;;;;22.51;59.98;98794.50;4978565;28;20093;-92
2021/07/08 01:36:00;;;;;;;8.32;4.00;;;;;;;22.51;60.44;98799.94;4978641;28;20121;-92
2021/07/08 01:38:27;;;;;;;12.65;4.03;;;;;;;22.43;60.23;98789.69;4978815;28;20066;-92
2021/07/08 01:40:53;;;;;;;5.72;3.30;;;;;;;22.43;59.73;98794.25;4977999;28;20081;-92
2021/07/08 01:43:19;;;;;;;6.25;3.67;;;;;;;22.54;60.22;98818.69;4978629;28;20066;-92
2021/07/08 01:45:45;;;;;;;7.00;3.65;;;;;;;22.48;60.37;98811.00;4976822;28;20424;-92
2021/07/08 01:48:11;;;;;;;10.77;4.35;;;;;;;22.61;59.50;98827.22;4977476;28;20130;-92
2021/07/08 01:50:37;;;;;;;7.43;3.90;;;;;;;22.83;58.35;98834.56;4977881;28;20050;-92
2021/07/08 01:53:03;;;;;;;8.27;4.10;;;;;;;22.86;58.47;98827.06;4978992;28;20500;-91
2021/07/08 01:55:30;;;;;;;5.68;3.70;;;;;;;22.82;58.57;98803.03;4979231;28;20049;-92
2021/07/08 01:57:57;;;;;;;6.63;3.78;;;;;;;22.93;58.72;98811.19;4979591;28;20062;-92
2021/07/08 02:00:25;;;;;;;5.90;3.33;;;;;;;22.91;58.54;98816.72;4968416;28;20051;-92
2021/07/08 02:02:51;;;;;;;8.18;3.75;;;;;;;22.88;59.13;98819.69;4978864;28;20038;-92
2021/07/08 02:05:18;;;;;;;6.05;4.05;;;;;;;22.66;59.28;98811.44;4978709;28;20034;-91
2021/07/08 02:07:44;;;;;;;5.90;3.58;;;;;;;22.68;59.83;98832.03;4978241;28;20131;-91
2021/07/08 02:10:13;;;;;;;9.70;3.60;;;;;;;22.69;59.37;98830.22;4977968;28;20035;-92
2021/07/08 02:12:41;;;;;;;7.72;3.90;;;;;;;22.75;58.92;98843.31;4977386;28;20054;-91
2021/07/08 02:15:09;;;;;;;5.90;4.20;;;;;;;22.70;58.70;98851.75;4975850;28;20051;-92
2021/07/08 02:17:36;;;;;;;5.20;4.00;;;;;;;22.61;59.41;98857.88;4977127;28;20035;-93
2021/07/08 02:20:03;;;;;;;6.80;4.10;;;;;;;22.61;59.75;98867.88;4976159;28;20046;-92
2021/07/08 02:22:29;;;;;;;5.22;3.88;;;;;;;22.36;59.90;98842.63;4966111;28;20098;-91
2021/07/08 02:24:55;;;;;;;9.32;4.38;;;;;;;22.39;60.47;98860.47;4974546;28;20066;-92
2021/07/08 02:27:21;;;;;;;5.95;3.60;;;;;;;22.30;60.62;98857.47;4976872;28;20444;-91
2021/07/08 02:29:49;;;;;;;5.13;3.67;;;;;;;22.38;59.89;98823.50;4978215;28;20047;-92
2021/07/08 02:32:15;;;;;;;5.40;3.58;;;;;;;22.60;59.32;98834.50;4974726;28;20408;-94
2021/07/08 02:34:40;;;;;;;8.45;4.32;;;;;;;22.26;60.25;98847.84;4977774;28;20489;-92
2021/07/08 02:37:07;;;;;;;7.20;4.10;;;;;;;22.15;61.03;98843.19;4977950;28;20054;-92
2021/07/08 02:39:34;;;;;;;7.53;4.20;;;;;;;22.06;61.13;98843.84;4979040;28;20046;-92
2021/07/08 02:42:00;;;;;;;6.93;4.30;;;;;;;21.94;61.55;98842.03;4978760;28;20096;-92
2021/07/08 02:44:26;;;;;;;6.47;4.10;;;;;;;22.08;61.34;98866.28;4976757;28;20041;-92
2021/07/08 02:46:53;;;;;;;6.43;3.85;;;;;;;22.06;61.06;98856.53;4968442;28;20062;-92
2021/07/08 02:49:19;;;;;;;7.10;4.07;;;;;;;22.09;61.33;98884.25;4975415;28;20141;-91
2021/07/08 02:51:45;;;;;;;6.75;3.85;;;;;;;21.79;61.66;98849.41;4978726;28;20126;-92
2021/07/08 02:54:11;;;;;;;7.97;3.70;;;;;;;21.78;61.41;98860.38;4978599;28;20041;-92
2021/07/08 02:56:37;;;;;;;8.20;4.10;;;;;;;21.80;61.63;98883.66;4974313;28;20469;-92
2021/07/08 02:59:03;;;;;;;5.03;3.70;;;;;;;21.76;61.78;98857.78;4978744;28;20125;-92
2021/07/08 03:01:29;;;;;;;6.53;3.55;;;;;;;21.52;61.68;98830.63;4977934;28;20039;-91
2021/07/08 03:03:57;;;;;;;7.00;4.15;;;;;;;21.66;62.03;98849.44;4978512;28;20503;-92
2021/07/08 03:06:23;;;;;;;7.30;3.92;;;;;;;21.66;61.79;98826.91;4976748;28;20043;-91
2021/07/08 03:08:48;;;;;;;6.80;3.55;;;;;;;21.76;61.21;98837.97;4976979;28;20035;-92
2021/07/08 03:11:14;;;;;;;8.20;4.10;;;;;;;21.83;60.56;98848.22;4978426;28;20042;-91
2021/07/08 03:13:42;;;;;;;6.93;4.20;;;;;;;22.07;60.43;98836.59;4978167;28;20051;-91
2021/07/08 03:16:09;;;;;;;6.28;3.80;;;;;;;21.99;60.37;98820.03;4975732;28;20485;-92
2021/07/08 03:18:35;;;;;;;7.38;3.60;;;;;;;21.89;60.02;98807.19;4976747;28;20070;-92
2021/07/08 03:21:03;;;;;;;7.63;4.32;;;;;;;21.86;60.57;98831.78;4969261;28;20043;-92
2021/07/08 03:23:29;;;;;;;9.65;3.90;;;;;;;21.91;60.15;98835.00;4968769;28;20421;-91
2021/07/08 03:25:54;;;;;;;5.30;3.70;;;;;;;21.90;59.88;98829.69;4963111;28;20050;-92
2021/07/08 03:28:20;;;;;;;8.43;3.70;;;;;;;21.93;59.92;98840.31;4978625;28;20485;-91
2021/07/08 03:30:46;;;;;;;6.38;3.90;;;;;;;21.94;60.00;98826.66;4977176;28;20073;-93
2021/07/08 03:33:12;;;;;;;5.85;3.85;;;;;;;22.06;59.57;98838.44;4977801;28;20046;-91
2021/07/08 03:35:38;;;;;;;5.05;3.67;;;;;;;22.08;59.69;98825.66;4978091;28;20122;-91
2021/07/08 03:38:05;;;;;;;5.68;3.65;;;;;;;22.18;59.16;98833.09;4977002;28;20053;-92
2021/07/08 03:40:32;;;;;;;7.45;3.85;;;;;;;22.07;59.02;98810.38;4978416;28;20401;-91
2021/07/08 03:42:58;;;;;;;8.43;3.45;;;;;;;22.06;59.14;98799.66;4977982;28;20531;-90
2021/07/08 03:45:25;;;;;;;5.43;3.28;;;;;;;22.24;58.59;98814.56;4976132;28;20066;-92
2021/07/08 03:47:52;;;;;;;6.15;3.55;;;;;;;22.16;59.00;98792.56;4973903;28;20035;-92
2021/07/08 03:50:18;;;;;;;5.13;3.72;;;;;;;22.30;58.83;98807.84;4977604;28;20039;-91
2021/07/08 03:52:45;;;;;;;9.52;3.60;;;;;;;22.27;58.65;98798.09;4975642;28;20050;-92
2021/07/08 03:55:14;;;;;;;7.55;4.00;;;;;;;22.29;59.56;98811.53;4975739;28;20501;-92
2021/07/08 04:00:42;;;;;;;6.57;4.10;;;;;;;22.53;60.11;98830.50;5124376;27;20823;-93
2021/07/08 04:03:11;;;;;;;5.20;3.75;;;;;;;22.48;58.88;98811.00;5090238;28;20044;-91
2021/07/08 04:05:37;;;;;;;5.03;3.60;;;;;;;22.62;58.57;98816.25;5091253;28;20040;-93
2021/07/08 04:08:04;;;;;;;10.00;4.25;;;;;;;22.66;58.72;98823.19;5091180;28;20071;-92
2021/07/08 04:10:30;;;;;;;6.78;4.10;;;;;;;22.67;58.54;98818.63;5091029;28;20038;-91
2021/07/08 04:12:57;;;;;;;8.98;3.78;;;;;;;22.66;58.65;98812.34;5091001;28;20413;-93
2021/07/08 04:15:23;;;;;;;6.65;3.72;;;;;;;22.79;58.36;98819.50;5091656;28;20390;-91
2021/07/08 04:17:50;;;;;;;4.75;3.83;;;;;;;22.77;58.06;98787.97;5092333;28;20498;-93
2021/07/08 04:20:18;;;;;;;7.40;3.53;;;;;;;22.73;58.74;98772.94;5091098;28;20036;-92
2021/07/08 04:22:45;;;;;;;5.70;3.70;;;;;;;23.00;56.81;98787.19;5091638;28;20119;-93
2021/07/08 04:25:12;;;;;;;7.35;3.63;;;;;;;22.98;56.95;98762.88;5091480;28;20123;-93
2021/07/08 04:27:39;;;;;;;6.18;4.20;;;;;;;23.16;56.58;98788.59;5090999;28;20047;-91
2021/07/08 04:30:07;;;;;;;7.22;3.78;;;;;;;23.17;56.37;98779.47;5091658;28;20127;-91
2021/07/08 04:32:34;;;;;;;6.88;3.92;;;;;;;23.27;56.09;98779.63;5092159;28;20033;-92
2021/07/08 04:35:02;;;;;;;6.57;3.42;;;;;;;23.24;55.63;98771.69;5092253;28;20040;-91
2021/07/08 04:37:28;;;;;;;7.97;3.40;;;;;;;23.35;55.54;98784.41;5090875;28;20044;-92
2021/07/08 04:39:54;;;;;;;8.68;3.60;;;;;;;23.37;56.33;98799.59;5090133;28;20102;-93
2021/07/08 04:42:20;;;;;;;7.28;4.03;;;;;;;23.32;56.99;98787.38;5091850;28;20041;-92
2021/07/08 04:44:47;;;;;;;11.13;4.05;;;;;;;23.38;56.98;98805.91;5092276;28;20119;-92
2021/07/08 04:47:13;;;;;;;6.75;4.03;;;;;;;23.37;57.26;98815.88;5087774;28;20110;-93
2021/07/08 04:49:39;;;;;;;7.10;4.10;;;;;;;23.23;57.43;98791.69;5089985;28;20133;-92
2021/07/08 04:52:07;;;;;;;6.47;4.25;;;;;;;23.32;57.42;98833.53;5091748;28;20104;-91
2021/07/08 04:54:33;;;;;;;6.47;4.38;;;;;;;23.25;57.61;98859.38;5091955;28;20093;-92
2021/07/08 04:56:59;;;;;;;5.93;4.22;;;;;;;23.08;58.22;98844.44;5091810;28;20036;-92
2021/07/08 04:59:25;;;;;;;8.50;4.45;;;;;;;22.84;58.99;98864.28;5091440;28;20040;-91
2021/07/08 05:01:51;;;;;;;8.35;4.38;;;;;;;22.90;59.00;98862.94;5089028;28;20502;-91
2021/07/08 05:04:17;;;;;;;8.30;4.45;;;;;;;22.88;58.98;98854.94;5090207;28;20028;-91
2021/07/08 05:06:42;;;;;;;8.13;4.68;;;;;;;22.92;58.94;98874.53;5090099;28;20467;-91
2021/07/08 05:09:10;;;;;;;9.77;4.80;;;;;;;23.10;58.75;98896.72;5091316;28;20067;-91
2021/07/08 05:11:35;;;;;;;7.72;4.68;;;;;;;23.21;58.93;98909.47;5078970;28;20057;-91
2021/07/08 05:14:01;;;;;;;9.80;4.68;;;;;;;23.40;58.45;98931.47;5076314;28;20122;-91
2021/07/08 05:16:27;;;;;;;14.07;5.65;;;;;;;23.53;57.38;98902.41;5074581;28;20071;-91
2021/07/08 05:18:53;;;;;;;18.80;5.28;;;;;;;23.78;56.88;98884.19;5076138;28;20064;-92
2021/07/08 05:21:19;;;;;;;10.07;4.80;;;;;;;23.94;55.98;98903.72;5078402;28;20056;-92
2021/07/08 05:23:45;;;;;;;13.40;4.80;;;;;;;24.33;54.72;98925.94;5076843;28;20048;-91
2021/07/08 05:26:12;;;;;;;10.10;4.85;;;;;;;24.78;54.03;98922.28;5076115;28;20040;-92
2021/07/08 05:28:38;;;;;;;10.82;4.50;;;;;;;24.81;52.95;98919.34;5076173;28;20047;-92
2021/07/08 05:31:04;;;;;;;8.30;4.90;;;;;;;24.70;53.63;98936.53;5075491;28;20044;-93
2021/07/08 05:33:30;;;;;;;8.65;5.07;;;;;;;24.94;52.90;98924.56;5076883;28;20048;-93
2021/07/08 05:35:56;;;;;;;10.88;4.95;;;;;;;25.04;52.99;98916.53;5075770;28;20049;-92
2021/07/08 05:38:21;;;;;;;13.63;4.80;;;;;;;25.03;53.16;98940.16;5075973;28;20102;-91
2021/07/08 05:40:50;;;;;;;8.95;4.75;;;;;;;24.67;54.58;98909.59;5077962;28;20048;-93
2021/07/08 05:43:18;;;;;;;9.82;4.80;;;;;;;24.52;56.10;98908.13;5077381;28;20157;-93
2021/07/08 05:45:43;;;;;;;9.05;4.22;;;;;;;24.53;55.21;98904.44;5076070;28;20043;-93
2021/07/08 05:48:09;;;;;;;8.65;4.65;;;;;;;24.54;55.05;98928.75;5076253;28;20057;-93
2021/07/08 05:50:35;;;;;;;9.15;4.50;;;;;;;24.56;54.45;98953.97;5076231;28;20032;-93
2021/07/08 05:53:01;;;;;;;7.50;4.32;;;;;;;24.45;56.04;98973.00;5075667;28;20066;-93
2021/07/08 05:55:27;;;;;;;7.95;4.47;;;;;;;24.57;54.55;98985.63;5079472;28;20056;-93
2021/07/08 05:57:53;;;;;;;8.02;4.53;;;;;;;24.83;54.44;98998.06;5083001;28;20040;-91
2021/07/08 06:00:21;;;;;;;15.48;5.55;;;;;;;24.75;53.61;98963.34;5082162;28;20081;-93
2021/07/08 06:02:47;;;;;;;15.05;5.15;;;;;;;24.78;53.71;99002.00;5083210;28;20056;-93
2021/07/08 06:05:13;;;;;;;9.85;5.03;;;;;;;24.84;53.20;98989.78;5083516;28;20045;-93
2021/07/08 06:07:39;;;;;;;14.73;5.32;;;;;;;25.00;53.51;99011.13;5082527;28;20059;-93
2021/07/08 06:10:07;;;;;;;15.50;4.97;;;;;;;25.04;53.46;99028.06;5078676;28;20098;-93
2021/07/08 06:12:34;;;;;;;13.93;5.07;;;;;;;25.07;54.10;99003.31;5078001;28;20137;-94
2021/07/08 06:14:59;;;;;;;12.25;4.80;;;;;;;25.17;52.83;99035.09;5077542;28;20033;-93
2021/07/08 06:17:27;;;;;;;12.80;5.03;;;;;;;25.22;53.55;99029.28;5077080;28;20044;-92
2021/07/08 06:19:53;;;;;;;7.72;4.82;;;;;;;25.18;52.08;99019.66;5075378;28;20494;-92
2021/07/08 06:22:19;;;;;;;11.20;5.28;;;;;;;25.41;52.07;99075.75;5076629;28;20045;-93
2021/07/08 06:24:45;;;;;;;16.98;4.88;;;;;;;25.45;52.75;99043.69;5079148;28;20080;-92
2021/07/08 06:27:11;;;;;;;8.63;4.80;;;;;;;25.53;52.02;99043.91;5079658;28;20044;-94
2021/07/08 06:29:37;;;;;;;10.88;4.57;;;;;;;25.68;51.97;99059.97;5081793;28;20089;-94
2021/07/08 06:32:03;;;;;;;8.20;5.10;;;;;;;25.71;51.64;99067.88;5078629;28;20363;-93
2021/07/08 06:34:31;;;;;;;14.40;5.10;;;;;;;25.63;51.63;99063.06;5076246;28;20439;-93
2021/07/08 06:36:56;;;;;;;13.93;4.70;;;;;;;25.76;51.30;99095.56;5076092;28;20482;-93
2021/07/08 06:39:22;;;;;;;10.85;5.18;;;;;;;25.73;51.25;99090.41;5076717;28;20058;-91
2021/07/08 06:41:48;;;;;;;12.50;5.20;;;;;;;25.96;50.64;99100.22;5077018;28;20047;-94
2021/07/08 06:44:14;;;;;;;11.85;5.35;;;;;;;25.99;50.29;99090.94;5076929;28;20040;-93
2021/07/08 06:46:40;;;;;;;14.05;5.00;;;;;;;25.94;50.33;99074.97;5076520;28;20059;-93
2021/07/08 06:49:08;;;;;;;9.35;4.80;;;;;;;26.17;49.75;99075.69;5076806;28;20033;-94
2021/07/08 06:51:35;;;;;;;11.13;5.07;;;;;;;25.96;49.80;99074.84;5076211;28;20028;-94
2021/07/08 06:54:02;;;;;;;9.27;4.90;;;;;;;25.83;49.90;99091.34;5075494;28;20153;-93
2021/07/08 06:56:28;;;;;;;7.95;4.38;;;;;;;25.83;50.95;99102.25;5075293;28;20036;-93
2021/07/08 06:58:56;;;;;;;9.07;4.72;;;;;;;25.67;50.89;99094.47;5075065;28;20044;-94
2021/07/08 07:01:22;;;;;;;14.27;4.82;;;;;;;25.57;51.66;99088.97;5074833;28;20444;-93
2021/07/08 07:03:48;;;;;;;10.57;4.93;;;;;;;25.44;52.56;99096.44;5074921;28;20037;-93
2021/07/08 07:06:14;;;;;;;10.65;5.45;;;;;;;25.40;53.69;99100.41;5076782;28;20048;-92
2021/07/08 07:08:41;;;;;;;14.18;5.38;;;;;;;25.38;52.85;99080.59;5076602;28;20490;-93
2021/07/08 07:11:07;;;;;;;10.32;5.20;;;;;;;25.36;52.26;99074.44;5075314;28;20049;-93
2021/07/08 07:13:33;;;;;;;7.47;5.20;;;;;;;25.38;53.48;99053.38;5075040;28;20131;-93
2021/07/08 07:15:59;;;;;;;13.32;4.90;;;;;;;25.30;54.41;99043.13;5419025;22;20080;-93
2021/07/08 07:18:25;;;;;;;8.45;4.97;;;;;;;25.42;55.06;99030.34;5022279;28;20042;-94
2021/07/08 07:20:51;;;;;;;9.90;5.07;;;;;;;25.73;54.23;99030.47;5045220;28;20027;-90
2021/07/08 07:23:17;;;;;;;10.45;5.35;;;;;;;25.91;53.40;99037.06;5031013;28;20076;-92
2021/07/08 07:25:45;;;;;;;9.90;5.13;;;;;;;25.85;53.78;99039.44;5025038;28;20030;-94
2021/07/08 07:28:11;;;;;;;;;;;;;;;25.89;54.12;99096.28;5027891;28;20527;-92
2021/07/08 07:30:38;;;;;;;13.45;5.47;;;;;;;25.62;53.34;99088.56;5027452;28;19928;-92
2021/07/08 07:33:04;;;;;;;13.70;5.28;;;;;;;25.58;53.80;99059.88;5034624;28;20041;-94
2021/07/08 07:35:30;;;;;;;12.05;5.07;;;;;;;25.49;54.55;99066.94;5017622;28;20111;-94
2021/07/08 07:37:56;;;;;;;11.23;5.10;;;;;;;25.50;54.11;99070.53;5017189;28;20045;-93
2021/07/08 07:40:23;;;;;;;12.50;5.30;;;;;;;25.29;54.68;99052.28;5031512;28;20049;-94
2021/07/08 07:42:50;;;;;;;12.02;5.07;;;;;;;25.25;55.93;99060.84;5036644;28;20041;-94
2021/07/08 07:45:17;;;;;;;9.60;4.87;;;;;;;25.54;54.28;99029.28;5037134;28;20045;-93
2021/07/08 07:47:43;;;;;;;15.50;5.43;;;;;;;25.39;54.65;99044.22;5024068;28;20033;-94
2021/07/08 07:50:10;;;;;;;10.48;5.13;;;;;;;25.53;54.35;99033.03;5029581;28;20040;-94
2021/07/08 07:52:36;;;;;;;15.18;6.15;;;;;;;25.89;53.44;99022.72;5017880;28;20049;-95
2021/07/08 07:55:02;;;;;;;14.05;7.30;;;;;;;26.41;51.52;99041.81;5024569;28;20033;-93
2021/07/08 07:57:28;;;;;;;9.23;6.38;;;;;;;27.10;49.07;99010.22;5028812;28;20045;-94
2021/07/08 07:59:55;;;;;;;12.00;6.00;;;;;;;27.31;48.55;99029.28;5015312;28;20046;-94
2021/07/08 08:02:21;;;;;;;10.60;5.32;;;;;;;26.82;48.67;99020.94;5016224;28;20132;-94
2021/07/08 08:10:46;;;;;;;11.15;5.20;;;;;;;28.49;45.56;98937.91;5094900;27;20385;-94
2021/07/08 08:13:13;;;;;;;9.17;4.87;;;;;;;28.34;45.92;98934.78;5094556;28;20051;-93
2021/07/08 08:15:39;;;;;;;10.73;4.50;;;;;;;28.44;44.85;98950.13;5093032;28;20546;-92
2021/07/08 08:18:06;;;;;;;9.18;4.85;;;;;;;28.22;46.17;98931.38;5094217;28;20555;-93
2021/07/08 08:20:33;;;;;;;11.68;4.95;;;;;;;27.74;45.78;98935.97;5095244;28;20032;-93
2021/07/08 08:22:59;;;;;;;6.88;4.55;;;;;;;27.65;46.91;98929.50;5095984;28;20045;-93
2021/07/08 08:25:25;;;;;;;7.18;4.68;;;;;;;28.01;46.82;98939.78;5094554;28;20108;-94
2021/07/08 08:27:53;;;;;;;13.63;5.30;;;;;;;27.90;45.87;98934.50;5094693;28;20131;-94
2021/07/08 08:30:19;;;;;;;9.10;5.03;;;;;;;28.34;44.39;98916.50;5094585;28;20130;-93
2021/07/08 08:32:45;;;;;;;9.02;4.82;;;;;;;28.96;44.53;98886.63;5094908;28;20559;-95
2021/07/08 08:35:12;;;;;;;7.60;4.60;;;;;;;28.96;43.15;98861.13;5095492;28;20490;-94
2021/07/08 08:40:40;;;;;;;7.10;4.80;;;;;;;28.96;42.83;98839.22;5115925;27;20361;-93
2021/07/08 08:43:06;;;;;;;7.85;5.05;;;;;;;28.98;43.71;98842.69;5115695;28;20066;-92
2021/07/08 08:45:32;;;;;;;8.73;4.60;;;;;;;28.72;43.01;98850.81;5115182;28;20485;-91
2021/07/08 08:48:01;;;;;;;8.38;4.55;;;;;;;28.33;44.24;98868.28;5115995;28;20085;-93
2021/07/08 08:50:29;;;;;;;7.07;4.60;;;;;;;27.59;45.66;98869.13;5115462;28;20101;-93
2021/07/08 08:52:55;;;;;;;9.80;4.60;;;;;;;27.31;46.06;98869.03;5115918;28;20058;-93
2021/07/08 08:55:21;;;;;;;8.55;4.57;;;;;;;27.33;46.16;98866.16;5116397;28;20058;-94
2021/07/08 08:57:49;;;;;;;6.97;4.28;;;;;;;27.34;46.40;98835.97;5114515;28;20040;-92
2021/07/08 09:00:50;;;;;;;5.57;4.20;;;;;;;27.46;45.53;98839.41;5114389;28;20477;-93
2021/07/08 09:03:19;;;;;;;7.18;4.60;;;;;;;27.60;45.40;98841.63;5112820;28;20054;-95
2021/07/08 09:05:48;;;;;;;7.80;4.57;;;;;;;27.58;46.68;98829.16;5114866;28;20044;-94
2021/07/08 09:08:18;;;;;;;7.22;4.35;;;;;;;27.63;47.13;98849.56;5114137;28;20455;-91
2021/07/08 09:11:02;;;;;;;8.18;4.93;;;;;;;27.66;44.85;98853.84;5104903;28;20048;-94
2021/07/08 09:13:51;;;;;;;9.95;4.68;;;;;;;27.82;44.93;98891.47;5109868;28;20050;-92
2021/07/08 09:16:18;;;;;;;11.55;4.93;;;;;;;27.79;44.64;98868.06;5107246;28;20044;-92
2021/07/08 09:18:54;;;;;;;9.43;4.78;;;;;;;27.89;44.90;98870.81;5114429;28;20435;-94
2021/07/08 09:21:21;;;;;;;9.48;4.85;;;;;;;27.93;43.56;98861.25;5111057;28;20131;-94
2021/07/08 09:24:15;;;;;;;13.10;4.93;;;;;;;28.37;43.13;98856.03;5114159;28;20036;-93
2021/07/08 09:26:44;;;;;;;6.60;4.63;;;;;;;28.76;42.96;98841.28;5095496;28;20036;-92
2021/07/08 09:29:17;;;;;;;9.07;4.95;;;;;;;28.94;42.13;98827.56;5114785;28;20032;-93
2021/07/08 09:31:48;;;;;;;6.45;4.38;;;;;;;29.86;40.76;98818.88;5109669;28;20127;-95
2021/07/08 09:34:16;;;;;;;8.40;4.85;;;;;;;30.20;38.68;98803.41;5114934;28;20081;-94
2021/07/08 09:36:42;;;;;;;8.00;4.60;;;;;;;30.77;38.74;98820.03;5114086;28;20047;-94
2021/07/08 09:39:10;;;;;;;10.30;5.35;;;;;;;30.59;38.96;98835.81;5112828;28;20047;-94
2021/07/08 09:41:46;;;;;;;5.28;4.78;;;;;;;30.60;37.77;98838.38;5114223;28;20416;-95
2021/07/08 09:44:25;;;;;;;6.53;4.47;;;;;;;30.76;37.29;98864.16;5113063;28;20044;-93
2021/07/08 09:46:55;;;;;;;5.53;4.30;;;;;;;30.79;37.09;98864.66;5113948;28;20036;-95
2021/07/08 09:49:22;;;;;;;9.10;4.80;;;;;;;31.03;36.56;98865.75;5115729;28;20039;-93
2021/07/08 09:51:49;;;;;;;7.85;4.70;;;;;;;31.35;35.63;98859.41;5102370;28;20020;-95
2021/07/08 09:54:42;;;;;;;8.57;4.45;;;;;;;31.60;35.05;98840.16;5093856;28;20036;-93
2021/07/08 09:57:07;;;;;;;6.43;4.15;;;;;;;32.01;34.65;98838.22;5093586;28;20447;-92
2021/07/08 09:59:36;;;;;;;9.55;4.40;;;;;;;32.20;34.31;98817.66;5100209;28;20052;-92
2021/07/08 10:02:02;;;;;;;9.65;4.28;;;;;;;32.55;34.32;98812.69;5100242;28;20490;-93
2021/07/08 10:04:28;;;;;;;6.93;4.55;;;;;;;32.71;32.85;98817.25;5099779;28;20036;-92
2021/07/08 10:06:55;;;;;;;8.52;4.13;;;;;;;33.03;33.22;98826.31;5100092;28;20435;-93
2021/07/08 10:09:27;;;;;;;8.90;4.22;;;;;;;33.23;32.09;98800.00;5100813;28;20032;-93
2021/07/08 10:11:55;;;;;;;8.60;3.97;;;;;;;33.25;31.05;98777.78;5101408;28;20040;-94
2021/07/08 10:14:22;;;;;;;8.98;4.30;;;;;;;33.46;31.22;98779.78;5101250;28;20179;-95
2021/07/08 10:16:52;;;;;;;8.87;4.03;;;;;;;33.65;30.56;98771.00;5099358;28;20044;-91
2021/07/08 10:19:20;;;;;;;10.48;3.78;;;;;;;33.80;29.41;98761.88;5100752;28;20044;-95
2021/07/08 10:21:47;;;;;;;8.35;4.22;;;;;;;33.42;29.38;98764.66;5106628;28;20071;-93
2021/07/08 10:24:17;;;;;;;7.15;3.80;;;;;;;33.59;28.19;98749.69;5100080;28;20074;-94
2021/07/08 10:26:44;;;;;;;8.80;3.90;;;;;;;33.34;29.14;98746.34;5099223;28;20044;-94
2021/07/08 10:29:11;;;;;;;6.07;3.72;;;;;;;33.48;28.37;98744.63;5097970;28;20040;-93
2021/07/08 10:31:39;;;;;;;6.93;3.97;;;;;;;33.56;28.71;98714.22;5098821;28;20563;-93
2021/07/08 10:34:11;;;;;;;8.57;3.70;;;;;;;33.87;27.54;98713.16;5099972;28;20055;-94
2021/07/08 10:36:38;;;;;;;7.43;3.55;;;;;;;34.21;26.31;98712.53;5100774;28;20040;-95
2021/07/08 10:39:11;;;;;;;10.32;3.70;;;;;;;34.54;26.05;98712.88;5100385;28;20048;-93
2021/07/08 10:41:52;;;;;;;5.95;3.60;;;;;;;34.38;25.58;98687.47;5098558;28;20054;-94
2021/07/08 10:44:50;;;;;;;7.70;3.85;;;;;;;34.43;26.12;98707.91;5098982;28;20068;-95
2021/07/08 10:47:37;;;;;;;10.05;3.92;;;;;;;34.47;27.17;98703.69;5102944;28;20036;-93
2021/07/08 10:50:08;;;;;;;9.17;4.40;;;;;;;34.65;25.98;98694.13;5099754;28;20040;-93
2021/07/08 10:52:45;;;;;;;7.80;3.90;;;;;;;34.80;25.84;98683.84;5098331;28;20039;-94
2021/07/08 10:55:32;;;;;;;9.43;3.87;;;;;;;34.96;26.10;98672.50;5100589;28;20082;-94
2021/07/08 10:57:58;;;;;;;7.05;3.85;;;;;;;34.75;26.23;98686.38;5101140;28;20093;-94
2021/07/08 11:00:54;;;;;;;6.65;3.78;;;;;;;34.93;27.03;98696.91;5100304;28;20044;-96
2021/07/08 11:03:40;;;;;;;10.75;4.50;;;;;;;35.02;27.05;98689.34;5096868;28;20101;-96
2021/07/08 11:06:28;;;;;;;8.63;4.50;;;;;;;34.83;26.33;98675.19;5101140;28;20485;-95
2021/07/08 11:09:12;;;;;;;10.07;4.40;;;;;;;35.09;26.30;98684.69;5103382;28;20040;-95
2021/07/08 11:12:06;;;;;;;11.75;4.57;;;;;;;35.29;25.47;98682.97;5102953;28;20044;-94
2021/07/08 11:14:38;;;;;;;8.63;4.35;;;;;;;35.44;25.66;98677.31;5102684;28;20505;-93
2021/07/08 11:17:16;;;;;;;13.00;4.95;;;;;;;34.42;27.13;98684.13;5102716;28;20111;-93
2021/07/08 11:19:45;;;;;;;12.18;5.10;;;;;;;34.60;26.93;98689.16;5100028;28;20080;-93
2021/07/08 11:22:27;;;;;;;7.63;4.55;;;;;;;34.82;26.66;98676.22;5099941;28;20436;-93
2021/07/08 11:24:55;;;;;;;11.30;4.80;;;;;;;34.69;26.91;98662.28;5101385;28;20089;-92
2021/07/08 11:27:34;;;;;;;11.07;4.68;;;;;;;34.80;27.69;98675.56;5101153;28;20043;-94
2021/07/08 11:30:04;;;;;;;9.55;4.32;;;;;;;34.63;27.57;98652.03;5099686;28;20036;-94
2021/07/08 11:38:41;;;;;;;5.75;3.80;;;;;;;35.36;24.99;98658.97;5073680;27;20383;-93
2021/07/08 11:41:11;;;;;;;10.93;4.53;;;;;;;35.57;24.90;98659.97;5073681;28;20107;-93
2021/07/08 11:43:37;;;;;;;10.15;4.15;;;;;;;35.87;24.09;98659.66;5077914;28;20036;-94
2021/07/08 11:46:07;;;;;;;11.80;4.00;;;;;;;36.04;24.45;98638.84;5077556;28;20520;-93
2021/07/08 11:48:38;;;;;;;10.07;4.07;;;;;;;35.95;22.77;98645.66;5078538;28;20386;-93
2021/07/08 11:51:14;;;;;;;10.95;3.80;;;;;;;35.84;23.09;98621.34;5076882;28;20504;-94
2021/07/08 11:53:48;;;;;;;10.15;4.53;;;;;;;35.55;23.32;98626.13;5072742;28;20410;-93